Mason City, Iowa
Current Conditions -  °F | °C
As of 3:53 PM on Thursday 23 Oct 2014 (Local Time) from KMCW Reporting Station
Clear Clear  
Wind Chill: 67°   Ceiling: Unl
Heat Index: 67°   Visibility: 10mi
Dew Point: 48°   Wind: 6mph
Humidity: 51%   Direction: 270°W
Pressure: 30"   Gusts: NA
Location:  43.15°N, 93.2°W
Report Text: KMCW 232053Z AUTO 27005KT 10SM CLR 19/09 A3000 RMK AO2 SLP154 T01940089 56012
Loading
Personal Weather Stations






























Interactive Weather Map
Tropical Storm Tracking
New forecast layout! Learn more

10-Day Weather Forecast

Advertisements
Track Severe Weather on mobile